Terminal Aerodrome Forecast
Issued by NWS

Home | Current Version | Previous Version | Graphics & Text | Print | Product List | Glossary On
Versions: 1 2 3 4 5 6 7 8 9 10 11 12 13 14 15 16 17
743
FTUS43 KFGF 240811 AAA
TAFBJI
TAF AMD
KBJI 240811Z 2408/2506 32003KT P6SM SKC
      TEMPO 2408/2410 1SM BR VV005
     FM242300 13009KT P6SM FEW120=

USA.gov is the U.S. government's official web portal to all federal, state and local government web resources and services.